Time;durP1;ratioP1;P1;durP2;ratioP2;P2;SDS_P1;SDS_P2;PMS_P1;PMS_P2;Temp;Humidity;BMP_temperature;BMP_pressure;BME280_temperature;BME280_humidity;BME280_pressure;Samples;Min_cycle;Max_cycle;Signal;HPM_P1;HPM_P2
2022/06/21 00:00:33;;;;;;;;;;;;;;;25.03;51.73;97822.16;5007805;28;20021;-81
2022/06/21 00:03:02;;;;;;;;;;;;;;;24.63;52.97;97819.69;5025944;28;20059;-82
2022/06/21 00:05:30;;;;;;;;;;;;;;;24.65;53.17;97822.06;5028925;28;19925;-83
2022/06/21 00:07:58;;;;;;;;;;;;;;;23.89;53.46;97828.03;5039010;28;20051;-81
2022/06/21 00:10:25;;;;;;;;;;;;;;;24.34;54.10;97827.59;5030037;28;20439;-81
2022/06/21 00:12:51;;;;;;;;;;;;;;;24.61;53.29;97819.25;5024597;28;20301;-82
2022/06/21 00:15:18;;;;;;;;;;;;;;;24.80;52.89;97834.09;5042307;28;19944;-81
2022/06/21 00:17:46;;;;;;;;;;;;;;;24.85;52.26;97831.13;5032081;28;20010;-81
2022/06/21 00:20:13;;;;;;;;;;;;;;;25.11;51.62;97823.88;5042116;28;20024;-81
2022/06/21 00:22:40;;;;;;;;;;;;;;;25.23;51.60;97834.66;5041499;28;19947;-81
2022/06/21 00:25:10;;;;;;;;;;;;;;;25.23;51.30;97831.13;5039057;28;20023;-81
2022/06/21 00:27:36;;;;;;;;;;;;;;;25.13;51.53;97827.00;5031264;28;19936;-81
2022/06/21 00:30:03;;;;;;;;;;;;;;;24.94;51.85;97816.09;5042844;28;19925;-82
2022/06/21 00:32:30;;;;;;;;;;;;;;;23.98;52.70;97821.25;5028822;28;19935;-81
2022/06/21 00:34:56;;;;;;;;;;;;;;;23.54;55.11;97828.69;5026202;28;19929;-81
2022/06/21 00:37:23;;;;;;;;;;;;;;;23.52;54.93;97822.03;5029072;28;19925;-81
2022/06/21 00:39:51;;;;;;;;;;;;;;;22.38;58.05;97834.22;5033522;28;19932;-80
2022/06/21 00:42:20;;;;;;;;;;;;;;;23.06;58.00;97823.41;5028980;28;20038;-81
2022/06/21 00:44:49;;;;;;;;;;;;;;;22.84;58.91;97826.69;5034479;28;20020;-81
2022/06/21 00:47:16;;;;;;;;;;;;;;;23.44;57.90;97829.19;5029094;28;20393;-82
2022/06/21 00:49:47;;;;;;;;;;;;;;;23.01;57.51;97826.41;5035493;28;19931;-81
2022/06/21 00:52:16;;;;;;;;;;;;;;;23.72;57.20;97820.97;5026057;28;19939;-81
2022/06/21 00:54:46;;;;;;;;;;;;;;;24.17;55.24;97823.28;5014545;28;20008;-81
2022/06/21 00:57:14;;;;;;;;;;;;;;;24.48;54.27;97817.00;5027298;28;20344;-82
2022/06/21 00:59:42;;;;;;;;;;;;;;;23.95;55.25;97832.09;5027360;28;20355;-81
2022/06/21 01:02:17;;;;;;;;;;;;;;;23.70;55.45;97833.38;5024304;28;19972;-82
2022/06/21 01:04:46;;;;;;;;;;;;;;;23.45;56.67;97830.78;5040941;28;20394;-81
2022/06/21 01:07:13;;;;;;;;;;;;;;;23.29;56.97;97823.69;5040393;28;19929;-82
2022/06/21 01:09:42;;;;;;;;;;;;;;;23.40;57.27;97828.31;5021407;28;19925;-81
2022/06/21 01:12:12;;;;;;;;;;;;;;;22.33;58.67;97837.16;5029104;28;19928;-82
2022/06/21 01:14:41;;;;;;;;;;;;;;;22.90;58.47;97828.03;5017814;28;19925;-81
2022/06/21 01:17:11;;;;;;;;;;;;;;;22.58;59.00;97830.56;5015202;28;20031;-81
2022/06/21 01:19:39;;;;;;;;;;;;;;;21.81;62.64;97833.47;5032501;28;19950;-81
2022/06/21 01:22:15;;;;;;;;;;;;;;;21.61;62.27;97823.47;5033748;28;20035;-81
2022/06/21 01:24:46;;;;;;;;;;;;;;;21.10;65.68;97817.44;5038750;28;19976;-81
2022/06/21 01:27:14;;;;;;;;;;;;;;;20.94;68.24;97819.13;5034112;28;19929;-80
2022/06/21 01:29:41;;;;;;;;;;;;;;;21.22;68.77;97817.47;5031288;28;19925;-81
2022/06/21 01:32:07;;;;;;;;;;;;;;;22.36;66.01;97812.00;5022543;28;20017;-81
2022/06/21 01:34:34;;;;;;;;;;;;;;;22.18;63.15;97823.47;5043944;28;20503;-80
2022/06/21 01:37:03;;;;;;;;;;;;;;;23.14;60.70;97814.31;5045630;28;19939;-82
2022/06/21 01:39:33;;;;;;;;;;;;;;;23.04;59.29;97817.53;5028869;28;19925;-80
2022/06/21 01:42:02;;;;;;;;;;;;;;;23.23;58.24;97825.88;5035698;28;19925;-81
2022/06/21 01:44:31;;;;;;;;;;;;;;;23.24;59.19;97827.44;5029647;28;20155;-81
2022/06/21 01:47:00;;;;;;;;;;;;;;;23.06;58.07;97834.31;5027772;28;19959;-80
2022/06/21 01:49:29;;;;;;;;;;;;;;;22.87;59.31;97826.00;5033483;28;19926;-81
2022/06/21 01:51:58;;;;;;;;;;;;;;;22.82;59.14;97818.06;5033178;28;20008;-82
2022/06/21 01:54:26;;;;;;;;;;;;;;;23.35;58.61;97817.63;5043486;28;19947;-81
2022/06/21 01:56:53;;;;;;;;;;;;;;;23.44;56.92;97821.03;5027368;28;20401;-80
2022/06/21 01:59:21;;;;;;;;;;;;;;;23.09;57.38;97820.00;5030132;28;19952;-81
2022/06/21 02:02:03;;;;;;;;;;;;;;;23.23;57.61;97827.78;5016524;28;19929;-82
2022/06/21 02:04:32;;;;;;;;;;;;;;;23.34;57.10;97821.50;5038185;28;19971;-81
2022/06/21 02:07:01;;;;;;;;;;;;;;;23.53;57.04;97821.66;5038191;28;20028;-81
2022/06/21 02:09:31;;;;;;;;;;;;;;;23.27;56.89;97818.59;5029330;28;19925;-81
2022/06/21 02:12:01;;;;;;;;;;;;;;;23.13;57.43;97807.28;5002969;28;20035;-81
2022/06/21 02:14:31;;;;;;;;;;;;;;;23.26;57.66;97814.28;5030036;28;19947;-81
2022/06/21 02:17:02;;;;;;;;;;;;;;;23.17;57.41;97805.47;5043619;28;19933;-80
2022/06/21 02:19:31;;;;;;;;;;;;;;;22.91;57.14;97815.97;5023456;28;19925;-81
2022/06/21 02:21:57;;;;;;;;;;;;;;;23.17;57.20;97810.91;5034598;28;20016;-80
2022/06/21 02:24:28;;;;;;;;;;;;;;;23.59;56.33;97812.06;5037445;28;20401;-81
2022/06/21 02:26:54;;;;;;;;;;;;;;;23.77;55.55;97811.75;5033224;28;20505;-80
2022/06/21 02:29:21;;;;;;;;;;;;;;;23.93;55.01;97815.25;5043465;28;19935;-81
2022/06/21 02:31:47;;;;;;;;;;;;;;;23.95;54.68;97808.31;5043512;28;19963;-81
2022/06/21 02:34:18;;;;;;;;;;;;;;;24.09;53.95;97805.13;5020193;28;20464;-81
2022/06/21 02:36:47;;;;;;;;;;;;;;;24.20;53.57;97787.13;5030874;28;19925;-82
2022/06/21 02:39:16;;;;;;;;;;;;;;;24.21;53.58;97807.78;5025853;28;20027;-81
2022/06/21 02:41:47;;;;;;;;;;;;;;;24.16;53.57;97806.16;5022470;28;19931;-81
2022/06/21 02:44:17;;;;;;;;;;;;;;;24.23;53.26;97810.97;5024613;28;19929;-81
2022/06/21 02:46:46;;;;;;;;;;;;;;;24.17;53.10;97807.72;5036267;28;20098;-81
2022/06/21 02:49:14;;;;;;;;;;;;;;;24.21;53.14;97817.91;5022743;28;20329;-81
2022/06/21 02:51:44;;;;;;;;;;;;;;;24.16;53.20;97816.25;5038844;28;19925;-82
2022/06/21 02:54:14;;;;;;;;;;;;;;;23.94;53.40;97814.91;5038666;28;19928;-81
2022/06/21 02:56:43;;;;;;;;;;;;;;;23.82;53.96;97806.03;5022134;28;20016;-81
2022/06/21 02:59:10;;;;;;;;;;;;;;;23.87;53.66;97809.28;5027125;28;20039;-81
2022/06/21 03:01:39;;;;;;;;;;;;;;;23.94;53.55;97827.75;5020848;28;20019;-81
2022/06/21 03:04:07;;;;;;;;;;;;;;;23.99;53.36;97817.38;5036795;28;20015;-81
2022/06/21 03:06:34;;;;;;;;;;;;;;;23.92;53.54;97821.88;5041515;28;19964;-82
2022/06/21 03:09:03;;;;;;;;;;;;;;;23.93;53.47;97823.44;5031175;28;20039;-81
2022/06/21 03:11:32;;;;;;;;;;;;;;;23.87;53.48;97820.19;5041783;28;20070;-81
2022/06/21 03:14:01;;;;;;;;;;;;;;;23.68;54.08;97817.34;5039276;28;19928;-81
2022/06/21 03:16:28;;;;;;;;;;;;;;;22.89;55.14;97821.78;5020279;28;19945;-81
2022/06/21 03:18:58;;;;;;;;;;;;;;;22.26;57.71;97820.63;5040966;28;19935;-81
2022/06/21 03:21:27;;;;;;;;;;;;;;;21.27;60.58;97814.53;5023475;28;19924;-81
2022/06/21 03:23:54;;;;;;;;;;;;;;;21.14;64.83;97810.19;5016955;28;19975;-81
2022/06/21 03:26:22;;;;;;;;;;;;;;;21.73;62.45;97809.91;5041595;28;19987;-81
2022/06/21 03:28:48;;;;;;;;;;;;;;;22.67;59.55;97805.97;5037592;28;19982;-80
2022/06/21 03:31:17;;;;;;;;;;;;;;;23.22;57.29;97809.84;5031473;28;19924;-80
2022/06/21 03:33:45;;;;;;;;;;;;;;;23.32;56.57;97818.34;5023320;28;20279;-81
2022/06/21 03:36:13;;;;;;;;;;;;;;;23.39;55.90;97806.84;5018044;28;19964;-81
2022/06/21 03:38:41;;;;;;;;;;;;;;;23.58;55.49;97807.00;5010128;28;20385;-81
2022/06/21 03:43:57;;;;;;;;;;;;;;;23.49;55.50;97793.50;5029669;28;19925;-81
2022/06/21 03:46:25;;;;;;;;;;;;;;;23.46;55.20;97793.41;5017685;28;19933;-81
2022/06/21 03:48:55;;;;;;;;;;;;;;;23.55;55.04;97807.69;5023835;28;19961;-82
2022/06/21 03:51:25;;;;;;;;;;;;;;;23.47;54.90;97820.31;5030075;28;20430;-81
2022/06/21 03:53:54;;;;;;;;;;;;;;;23.56;54.58;97810.06;5027494;28;20004;-80
2022/06/21 03:56:22;;;;;;;;;;;;;;;23.54;54.83;97806.91;5017465;28;19980;-81
2022/06/21 03:58:54;;;;;;;;;;;;;;;23.45;54.69;97830.00;5034863;28;19931;-81
2022/06/21 04:01:25;;;;;;;;;;;;;;;23.28;55.01;97828.34;5031289;28;20191;-81
2022/06/21 04:03:54;;;;;;;;;;;;;;;23.42;54.56;97836.16;5041080;28;20019;-81
2022/06/21 04:06:25;;;;;;;;;;;;;;;23.42;54.36;97836.94;5040555;28;20032;-81
2022/06/21 04:08:54;;;;;;;;;;;;;;;23.31;54.27;97835.00;5040721;28;19973;-81
2022/06/21 04:11:22;;;;;;;;;;;;;;;23.08;54.90;97829.34;5023445;28;19972;-81
2022/06/21 04:13:53;;;;;;;;;;;;;;;22.60;55.58;97822.84;5039879;28;20096;-81
2022/06/21 04:16:23;;;;;;;;;;;;;;;22.76;55.60;97838.50;5041817;28;19925;-81
2022/06/21 04:18:55;;;;;;;;;;;;;;;22.74;55.66;97835.34;5042659;28;19925;-81
2022/06/21 04:21:24;;;;;;;;;;;;;;;22.42;56.56;97843.28;5022106;28;19929;-81
2022/06/21 04:23:53;;;;;;;;;;;;;;;22.02;56.43;97840.44;5042506;28;19939;-81
2022/06/21 04:26:22;;;;;;;;;;;;;;;21.78;56.52;97845.84;5042983;28;19982;-81
2022/06/21 04:28:54;;;;;;;;;;;;;;;20.72;60.29;97835.75;5036805;28;20153;-82
2022/06/21 04:31:25;;;;;;;;;;;;;;;21.23;60.50;97829.91;5031411;28;19935;-80
2022/06/21 04:33:56;;;;;;;;;;;;;;;21.67;59.38;97835.69;5017080;28;19947;-82
2022/06/21 04:36:25;;;;;;;;;;;;;;;22.24;57.43;97827.53;5014937;28;20047;-82
2022/06/21 04:38:55;;;;;;;;;;;;;;;21.84;58.62;97838.25;5005493;28;19937;-81
2022/06/21 04:41:24;;;;;;;;;;;;;;;21.88;57.90;97839.16;5032535;28;19925;-81
2022/06/21 04:43:54;;;;;;;;;;;;;;;21.70;58.66;97845.91;5022187;28;19925;-81
2022/06/21 04:46:25;;;;;;;;;;;;;;;22.15;58.27;97849.41;5037258;28;20019;-80
2022/06/21 04:48:58;;;;;;;;;;;;;;;21.46;59.11;97847.44;5028448;28;19931;-80
2022/06/21 04:51:27;;;;;;;;;;;;;;;21.35;59.85;97842.78;5034319;28;19925;-81
2022/06/21 04:53:55;;;;;;;;;;;;;;;21.17;60.99;97846.78;5009537;28;19925;-81
2022/06/21 04:56:29;;;;;;;;;;;;;;;21.32;61.84;97841.50;5040349;28;20169;-80
2022/06/21 04:58:57;;;;;;;;;;;;;;;21.88;60.06;97834.53;5026452;28;19939;-80
2022/06/21 05:01:33;;;;;;;;;;;;;;;21.63;59.69;97840.25;5015560;28;19936;-80
2022/06/21 05:04:02;;;;;;;;;;;;;;;22.45;58.21;97836.34;5031100;28;19929;-80
2022/06/21 05:06:28;;;;;;;;;;;;;;;22.17;57.87;97830.81;5038014;28;20004;-80
2022/06/21 05:08:55;;;;;;;;;;;;;;;21.60;59.78;97832.78;5039257;28;20311;-81
2022/06/21 05:11:22;;;;;;;;;;;;;;;21.65;60.65;97835.25;5043639;28;19925;-80
2022/06/21 05:13:50;;;;;;;;;;;;;;;22.18;58.87;97826.19;5036882;28;19929;-80
2022/06/21 05:16:19;;;;;;;;;;;;;;;21.41;59.78;97831.34;5045422;28;19938;-81
2022/06/21 05:18:50;;;;;;;;;;;;;;;21.43;60.53;97817.44;5028745;28;19979;-81
2022/06/21 05:21:19;;;;;;;;;;;;;;;21.97;59.82;97815.41;5040344;28;20025;-81
2022/06/21 05:23:46;;;;;;;;;;;;;;;21.32;59.94;97822.47;5017609;28;19951;-80
2022/06/21 05:26:15;;;;;;;;;;;;;;;21.29;62.02;97834.00;5042267;28;20324;-81
2022/06/21 05:28:45;;;;;;;;;;;;;;;20.52;64.49;97807.47;5036887;28;20376;-81
2022/06/21 05:31:14;;;;;;;;;;;;;;;20.97;64.05;97816.56;5027137;28;19935;-82
2022/06/21 05:33:42;;;;;;;;;;;;;;;22.08;60.02;97808.38;5039729;28;20301;-81
2022/06/21 05:36:11;;;;;;;;;;;;;;;21.90;58.83;97812.44;5030304;28;20323;-81
2022/06/21 05:38:48;;;;;;;;;;;;;;;21.84;58.93;97800.97;5037207;28;19985;-80
2022/06/21 05:41:30;;;;;;;;;;;;;;;22.52;57.90;97809.38;5023604;28;19925;-81
2022/06/21 05:43:59;;;;;;;;;;;;;;;22.83;56.61;97804.13;5021347;28;19929;-81
2022/06/21 05:46:27;;;;;;;;;;;;;;;23.17;56.02;97808.19;5001737;28;20034;-81
2022/06/21 05:48:55;;;;;;;;;;;;;;;22.79;55.93;97799.69;5029107;28;19967;-81
2022/06/21 05:51:25;;;;;;;;;;;;;;;23.19;55.76;97795.00;5041673;28;20011;-81
2022/06/21 05:53:54;;;;;;;;;;;;;;;23.31;55.06;97803.13;5038657;28;20007;-81
2022/06/21 05:56:23;;;;;;;;;;;;;;;23.71;54.62;97802.22;5041913;28;20153;-81
2022/06/21 05:58:52;;;;;;;;;;;;;;;23.91;54.03;97801.19;5029001;28;19963;-81
2022/06/21 06:01:22;;;;;;;;;;;;;;;24.17;53.26;97802.25;5040741;28;20212;-81
2022/06/21 06:03:50;;;;;;;;;;;;;;;24.19;53.17;97796.44;5037926;28;19935;-82
2022/06/21 06:06:18;;;;;;;;;;;;;;;23.75;53.43;97803.91;5040555;28;20019;-85
2022/06/21 06:08:47;;;;;;;;;;;;;;;23.58;54.04;97802.31;5039210;28;20430;-81
2022/06/21 06:11:19;;;;;;;;;;;;;;;24.12;53.74;97799.00;5024715;28;20008;-82
2022/06/21 06:13:46;;;;;;;;;;;;;;;24.26;52.31;97796.63;5037802;28;20039;-81
2022/06/21 06:16:16;;;;;;;;;;;;;;;24.08;53.39;97814.47;5037764;28;19928;-81
2022/06/21 06:18:47;;;;;;;;;;;;;;;23.94;53.28;97808.66;5037736;28;19925;-81
2022/06/21 06:21:17;;;;;;;;;;;;;;;23.42;54.50;97804.25;5036457;28;20080;-82
2022/06/21 06:23:46;;;;;;;;;;;;;;;23.93;53.59;97807.88;4972183;28;2029995;-82
2022/06/21 06:26:15;;;;;;;;;;;;;;;23.44;54.03;97818.31;5037965;28;20023;-81
2022/06/21 06:28:45;;;;;;;;;;;;;;;24.37;53.35;97811.31;5037159;28;19931;-80
2022/06/21 06:31:14;;;;;;;;;;;;;;;24.59;52.31;97807.09;5035785;28;20412;-83
2022/06/21 06:33:42;;;;;;;;;;;;;;;24.14;52.67;97811.16;5036068;28;20168;-82
2022/06/21 06:36:10;;;;;;;;;;;;;;;24.57;52.95;97818.38;5024993;28;20015;-82
2022/06/21 06:38:36;;;;;;;;;;;;;;;24.80;52.49;97806.78;5039825;28;20093;-82
2022/06/21 06:41:06;;;;;;;;;;;;;;;25.08;52.02;97807.38;5031926;28;19935;-81
2022/06/21 06:43:38;;;;;;;;;;;;;;;24.95;51.32;97800.47;5030376;28;20003;-82
2022/06/21 06:46:05;;;;;;;;;;;;;;;24.88;51.66;97803.84;5045424;28;20022;-81
2022/06/21 06:48:33;;;;;;;;;;;;;;;25.48;51.03;97807.78;5017147;28;20177;-81
2022/06/21 06:51:05;;;;;;;;;;;;;;;25.47;50.45;97808.94;5035935;28;20412;-81
2022/06/21 06:53:35;;;;;;;;;;;;;;;25.29;51.17;97805.06;5039359;28;20243;-81
2022/06/21 06:56:03;;;;;;;;;;;;;;;25.46;50.61;97818.31;5035832;28;20343;-80
2022/06/21 06:58:32;;;;;;;;;;;;;;;25.24;50.67;97819.03;5022662;28;19941;-82
2022/06/21 07:01:02;;;;;;;;;;;;;;;25.55;50.50;97832.56;5030855;28;20129;-81
2022/06/21 07:03:30;;;;;;;;;;;;;;;25.75;49.27;97828.63;5014666;28;20051;-80
2022/06/21 07:05:59;;;;;;;;;;;;;;;26.06;49.18;97833.06;5023792;28;20189;-79
2022/06/21 07:08:30;;;;;;;;;;;;;;;25.14;48.95;97841.47;5043731;28;19925;-82
2022/06/21 07:10:57;;;;;;;;;;;;;;;24.57;50.15;97842.19;5041420;28;20027;-81
2022/06/21 07:13:24;;;;;;;;;;;;;;;24.07;51.26;97854.63;5036041;28;19925;-81
2022/06/21 07:15:52;;;;;;;;;;;;;;;24.75;51.74;97848.81;5035807;28;19925;-83
2022/06/21 07:18:26;;;;;;;;;;;;;;;25.34;50.74;97845.81;5029737;28;20000;-82
2022/06/21 07:20:52;;;;;;;;;;;;;;;25.81;49.91;97844.75;5038230;28;19933;-80
2022/06/21 07:23:20;;;;;;;;;;;;;;;25.66;48.54;97844.47;5036249;28;19976;-81
2022/06/21 07:25:48;;;;;;;;;;;;;;;23.97;51.36;97835.25;5036454;28;19924;-80
2022/06/21 07:28:18;;;;;;;;;;;;;;;23.91;52.95;97833.91;5034142;28;20083;-82
2022/06/21 07:30:47;;;;;;;;;;;;;;;24.95;52.15;97830.53;5040811;28;19925;-82
2022/06/21 07:33:17;;;;;;;;;;;;;;;25.68;50.02;97828.50;5009611;28;19992;-82
2022/06/21 07:35:47;;;;;;;;;;;;;;;25.88;47.66;97812.03;5034127;28;20031;-83
2022/06/21 07:38:15;;;;;;;;;;;;;;;24.37;50.48;97808.56;5016859;28;19976;-82
2022/06/21 07:40:43;;;;;;;;;;;;;;;24.86;49.94;97806.16;5028412;28;19931;-83
2022/06/21 07:43:12;;;;;;;;;;;;;;;23.98;51.47;97806.81;5034368;28;19929;-82
2022/06/21 07:45:42;;;;;;;;;;;;;;;23.61;51.81;97804.31;5039750;28;20031;-82
2022/06/21 07:48:12;;;;;;;;;;;;;;;23.37;52.83;97801.72;5039195;28;19933;-82
2022/06/21 07:50:41;;;;;;;;;;;;;;;25.19;50.69;97786.53;5038349;28;20023;-82
2022/06/21 07:53:13;;;;;;;;;;;;;;;24.65;50.20;97787.34;5028222;28;19951;-82
2022/06/21 07:55:42;;;;;;;;;;;;;;;25.36;49.80;97804.41;5012926;28;19925;-82
2022/06/21 07:58:11;;;;;;;;;;;;;;;25.82;49.06;97802.53;5015359;28;19947;-82
2022/06/21 08:09:04;;;;;;;;;;;;;;;25.46;49.36;97806.56;5033751;28;19933;-81
2022/06/21 08:11:34;;;;;;;;;;;;;;;26.14;48.42;97801.13;5039557;28;20419;-81
2022/06/21 08:14:00;;;;;;;;;;;;;;;26.00;47.42;97807.16;5021620;28;19935;-82
2022/06/21 08:16:33;;;;;;;;;;;;;;;25.48;47.79;97815.97;5039687;28;19956;-81
2022/06/21 08:19:02;;;;;;;;;;;;;;;24.97;49.11;97814.59;5038121;28;20113;-81
2022/06/21 08:21:33;;;;;;;;;;;;;;;26.06;47.75;97818.56;5017359;28;20005;-81
2022/06/21 08:24:04;;;;;;;;;;;;;;;26.23;46.19;97807.16;5035157;28;20044;-81
2022/06/21 08:26:33;;;;;;;;;;;;;;;27.24;45.08;97807.00;5023297;28;19975;-81
2022/06/21 08:29:01;;;;;;;;;;;;;;;27.41;44.48;97804.84;5015551;28;20026;-80
2022/06/21 08:31:30;;;;;;;;;;;;;;;27.25;44.11;97810.53;5030894;28;19933;-82
2022/06/21 08:34:01;;;;;;;;;;;;;;;26.89;44.69;97811.28;5032567;28;19929;-81
2022/06/21 08:36:31;;;;;;;;;;;;;;;27.08;45.06;97822.84;5031060;28;19975;-82
2022/06/21 08:38:59;;;;;;;;;;;;;;;26.83;43.82;97823.72;5035372;28;19979;-82
2022/06/21 08:41:59;;;;;;;;;;;;;;;26.67;45.22;97827.41;5039208;28;19997;-81
2022/06/21 08:44:47;;;;;;;;;;;;;;;27.48;43.99;97811.19;4968987;28;19926;-83
2022/06/21 08:47:37;;;;;;;;;;;;;;;27.74;43.45;97813.81;4965284;28;19987;-81
2022/06/21 08:50:18;;;;;;;;;;;;;;;27.50;43.70;97808.88;5017587;28;19928;-81
2022/06/21 08:52:58;;;;;;;;;;;;;;;27.18;43.79;97813.19;5035863;28;20031;-82
2022/06/21 08:55:31;;;;;;;;;;;;;;;27.20;43.90;97803.41;5038600;28;20028;-82
2022/06/21 08:58:05;;;;;;;;;;;;;;;26.91;43.14;97803.47;5038562;28;20459;-82
2022/06/21 09:00:36;;;;;;;;;;;;;;;25.99;43.65;97802.06;5028487;28;19925;-81
2022/06/21 09:03:10;;;;;;;;;;;;;;;25.89;45.38;97802.66;5035726;28;20027;-81
2022/06/21 09:05:51;;;;;;;;;;;;;;;25.41;46.03;97798.66;5034629;28;20030;-81
2022/06/21 09:08:26;;;;;;;;;;;;;;;25.54;45.48;97813.78;5031838;28;20147;-81
2022/06/21 09:10:59;;;;;;;;;;;;;;;26.13;45.00;97807.75;5033942;28;19951;-82
2022/06/21 09:13:36;;;;;;;;;;;;;;;25.27;44.24;97801.13;5038012;28;19928;-83
2022/06/21 09:16:09;;;;;;;;;;;;;;;25.00;45.67;97798.28;5034645;28;20120;-81
2022/06/21 09:18:42;;;;;;;;;;;;;;;24.71;46.13;97787.88;5032219;28;20098;-81
2022/06/21 09:21:10;;;;;;;;;;;;;;;25.36;46.05;97802.47;5039752;28;19964;-81
2022/06/21 09:23:57;;;;;;;;;;;;;;;26.27;44.74;97795.09;5044372;28;20532;-82
2022/06/21 09:26:30;;;;;;;;;;;;;;;25.61;44.75;97790.09;5031368;28;19951;-81
2022/06/21 09:28:58;;;;;;;;;;;;;;;25.43;46.16;97790.88;5038728;28;20160;-81
2022/06/21 09:31:31;;;;;;;;;;;;;;;26.23;45.43;97783.31;5021894;28;19948;-80
2022/06/21 09:34:01;;;;;;;;;;;;;;;24.92;46.07;97796.53;5038387;28;20051;-80
2022/06/21 09:36:31;;;;;;;;;;;;;;;24.95;47.16;97792.28;5021810;28;20621;-81
2022/06/21 09:39:04;;;;;;;;;;;;;;;25.65;46.41;97796.41;5017478;28;19952;-81
2022/06/21 09:41:34;;;;;;;;;;;;;;;26.04;46.05;97797.06;5016343;28;20022;-82
2022/06/21 09:44:09;;;;;;;;;;;;;;;26.98;44.43;97782.41;5018862;28;19994;-82
2022/06/21 09:46:41;;;;;;;;;;;;;;;27.39;43.21;97777.78;5037818;28;19983;-83
2022/06/21 09:49:12;;;;;;;;;;;;;;;27.27;43.21;97772.56;5029176;28;19929;-82
2022/06/21 09:51:46;;;;;;;;;;;;;;;26.27;42.96;97772.44;5042073;28;20241;-81
2022/06/21 09:54:32;;;;;;;;;;;;;;;25.61;42.87;97773.69;5029697;28;19998;-84
2022/06/21 09:57:05;;;;;;;;;;;;;;;26.14;43.64;97771.81;5041327;28;19975;-81
2022/06/21 09:59:35;;;;;;;;;;;;;;;26.16;43.16;97772.25;5032159;28;19993;-82
2022/06/21 10:02:06;;;;;;;;;;;;;;;26.93;42.48;97773.72;5030901;28;19929;-82
2022/06/21 10:04:39;;;;;;;;;;;;;;;27.67;41.70;97780.81;5042545;28;19925;-82
2022/06/21 10:07:09;;;;;;;;;;;;;;;27.05;41.51;97771.53;5042119;28;19931;-81
2022/06/21 10:09:43;;;;;;;;;;;;;;;25.80;42.04;97782.97;5020195;28;19929;-81
2022/06/21 10:12:18;;;;;;;;;;;;;;;25.51;42.50;97777.00;5028721;28;19967;-81
2022/06/21 10:14:56;;;;;;;;;;;;;;;26.73;42.29;97776.59;5041877;28;19925;-81
2022/06/21 10:17:36;;;;;;;;;;;;;;;27.11;41.41;97764.53;5042743;28;20464;-81
2022/06/21 10:20:10;;;;;;;;;;;;;;;26.49;40.90;97755.13;5038332;28;19939;-80
2022/06/21 10:22:44;;;;;;;;;;;;;;;26.46;41.87;97747.66;5040002;28;19933;-81
2022/06/21 10:25:21;;;;;;;;;;;;;;;26.85;41.53;97737.25;5039105;28;20165;-82
2022/06/21 10:28:05;;;;;;;;;;;;;;;27.06;41.78;97744.91;5036609;28;20035;-81
2022/06/21 10:30:50;;;;;;;;;;;;;;;27.36;41.02;97738.19;5030524;28;19937;-80
2022/06/21 10:33:26;;;;;;;;;;;;;;;27.75;40.91;97737.78;5023648;28;20024;-81
2022/06/21 10:35:59;;;;;;;;;;;;;;;27.90;40.65;97725.75;5027525;28;19987;-82
2022/06/21 10:38:36;;;;;;;;;;;;;;;27.40;41.06;97721.75;5030748;28;19947;-82
2022/06/21 10:41:12;;;;;;;;;;;;;;;27.17;41.69;97719.19;5040720;28;19928;-81
2022/06/21 10:43:53;;;;;;;;;;;;;;;27.68;41.43;97711.06;5036081;28;20190;-83
2022/06/21 10:46:21;;;;;;;;;;;;;;;27.35;40.07;97698.22;5031196;28;19990;-81
2022/06/21 10:49:14;;;;;;;;;;;;;;;25.93;42.88;97711.28;5031294;28;20005;-82
2022/06/21 10:51:54;;;;;;;;;;;;;;;25.10;43.44;97709.44;5035567;28;20289;-81
2022/06/21 10:54:29;;;;;;;;;;;;;;;25.81;43.84;97702.50;5033215;28;20028;-82
2022/06/21 10:57:13;;;;;;;;;;;;;;;25.96;43.00;97702.34;5035699;28;20357;-82
2022/06/21 11:02:45;;;;;;;;;;;;;;;26.96;41.86;97688.81;5040102;28;20388;-82
2022/06/21 11:05:17;;;;;;;;;;;;;;;25.75;42.28;97691.84;5034240;28;20295;-82
2022/06/21 11:07:48;;;;;;;;;;;;;;;25.64;43.15;97701.03;5035503;28;20020;-81
2022/06/21 11:10:18;;;;;;;;;;;;;;;25.21;42.92;97691.31;5031597;28;19925;-81
2022/06/21 11:12:53;;;;;;;;;;;;;;;25.73;43.63;97685.97;5022531;28;19928;-81
2022/06/21 11:15:26;;;;;;;;;;;;;;;26.67;41.93;97676.72;5020629;28;20093;-81
2022/06/21 11:17:57;;;;;;;;;;;;;;;27.43;42.26;97677.16;5040979;28;19945;-81
2022/06/21 11:20:30;;;;;;;;;;;;;;;26.80;40.81;97667.09;5035982;28;19928;-83
2022/06/21 11:23:04;;;;;;;;;;;;;;;26.92;42.27;97665.28;5020493;28;20026;-81
2022/06/21 11:25:38;;;;;;;;;;;;;;;27.32;41.82;97666.09;5040424;28;19935;-82
2022/06/21 11:28:09;;;;;;;;;;;;;;;27.73;41.36;97672.28;5022224;28;20055;-83
2022/06/21 11:30:45;;;;;;;;;;;;;;;26.91;41.20;97669.19;5016613;28;19928;-82
2022/06/21 11:33:17;;;;;;;;;;;;;;;26.59;42.76;97666.84;5028449;28;19924;-83
2022/06/21 11:35:49;;;;;;;;;;;;;;;26.13;42.07;97659.94;5031155;28;19925;-83
2022/06/21 11:38:22;;;;;;;;;;;;;;;25.57;42.96;97654.44;5019330;28;20383;-81
2022/06/21 11:40:52;;;;;;;;;;;;;;;25.33;43.78;97663.78;5029800;28;19931;-82
2022/06/21 11:43:29;;;;;;;;;;;;;;;26.01;43.69;97660.19;5026872;28;20023;-81
2022/06/21 11:45:58;;;;;;;;;;;;;;;25.86;42.64;97666.59;5027446;28;19979;-81
2022/06/21 11:48:35;;;;;;;;;;;;;;;26.02;42.69;97673.50;5027699;28;19932;-82
2022/06/21 11:51:13;;;;;;;;;;;;;;;26.48;43.00;97663.19;5039831;28;19943;-81
2022/06/21 11:53:45;;;;;;;;;;;;;;;26.21;42.06;97672.63;5021951;28;20186;-82
2022/06/21 11:56:18;;;;;;;;;;;;;;;25.94;42.60;97669.06;5022222;28;19951;-81
2022/06/21 11:58:49;;;;;;;;;;;;;;;25.74;42.06;97664.88;5024795;28;19925;-81
2022/06/21 12:01:20;;;;;;;;;;;;;;;25.87;41.45;97663.50;5029077;28;19935;-81
2022/06/21 12:03:53;;;;;;;;;;;;;;;26.06;42.36;97657.09;5037975;28;19924;-81
2022/06/21 12:06:29;;;;;;;;;;;;;;;26.78;41.99;97652.19;5038941;28;20041;-82
2022/06/21 12:08:57;;;;;;;;;;;;;;;26.47;41.53;97653.38;5033986;28;19924;-81
2022/06/21 12:11:29;;;;;;;;;;;;;;;26.95;41.76;97646.13;5039934;28;20632;-81
2022/06/21 12:14:00;;;;;;;;;;;;;;;27.33;40.95;97650.38;5034430;28;20427;-83
2022/06/21 12:16:35;;;;;;;;;;;;;;;27.52;40.52;97652.16;5035854;28;20098;-82
2022/06/21 12:19:03;;;;;;;;;;;;;;;27.36;40.66;97650.44;5039204;28;20033;-81
2022/06/21 12:21:32;;;;;;;;;;;;;;;26.48;42.48;97649.50;5039162;28;20517;-81
2022/06/21 12:24:01;;;;;;;;;;;;;;;27.05;42.55;97658.38;5034274;28;19932;-81
2022/06/21 12:26:28;;;;;;;;;;;;;;;26.91;41.72;97650.00;5034250;28;20456;-81
2022/06/21 12:28:56;;;;;;;;;;;;;;;26.63;42.53;97634.81;5036717;28;20029;-82
2022/06/21 12:31:26;;;;;;;;;;;;;;;27.14;42.50;97642.41;5041121;28;19931;-81
2022/06/21 12:33:54;;;;;;;;;;;;;;;27.53;43.17;97629.84;5014370;28;19929;-82
2022/06/21 12:36:28;;;;;;;;;;;;;;;27.28;42.07;97634.28;5016920;28;20277;-81
2022/06/21 12:38:58;;;;;;;;;;;;;;;27.50;43.33;97622.38;5033677;28;19964;-83
2022/06/21 12:41:33;;;;;;;;;;;;;;;27.53;43.86;97621.59;5039007;28;19959;-82
2022/06/21 12:44:04;;;;;;;;;;;;;;;27.54;44.31;97604.00;5024525;28;19939;-82
2022/06/21 12:46:34;;;;;;;;;;;;;;;27.69;43.68;97602.91;5031104;28;20049;-81
2022/06/21 12:49:19;;;;;;;;;;;;;;;27.53;42.21;97601.63;5019919;28;20682;-81
2022/06/21 12:51:51;;;;;;;;;;;;;;;26.67;42.57;97605.50;5038752;28;19929;-81
2022/06/21 12:54:35;;;;;;;;;;;;;;;26.98;44.35;97607.03;5027974;28;19925;-82
2022/06/21 12:57:10;;;;;;;;;;;;;;;26.85;43.69;97602.19;5028731;28;19976;-82
2022/06/21 12:59:53;;;;;;;;;;;;;;;27.12;43.83;97598.13;5028388;28;19977;-81
2022/06/21 13:02:25;;;;;;;;;;;;;;;27.21;43.58;97598.59;5027094;28;19928;-81
2022/06/21 13:05:01;;;;;;;;;;;;;;;27.16;42.44;97602.47;5029679;28;20661;-82
2022/06/21 13:07:34;;;;;;;;;;;;;;;26.96;42.25;97614.00;5030762;28;19928;-82
2022/06/21 13:10:19;;;;;;;;;;;;;;;27.40;43.19;97606.56;5038718;28;20280;-82
2022/06/21 13:13:03;;;;;;;;;;;;;;;27.65;41.62;97613.06;5031686;28;19929;-80
2022/06/21 13:15:40;;;;;;;;;;;;;;;26.75;41.55;97609.09;5035063;28;20032;-81
2022/06/21 13:18:21;;;;;;;;;;;;;;;26.21;42.78;97596.75;5039423;28;19929;-81
2022/06/21 13:20:55;;;;;;;;;;;;;;;27.00;43.00;97584.69;5038133;28;20432;-82